Time;durP1;ratioP1;P1;durP2;ratioP2;P2;SDS_P1;SDS_P2;PMS_P1;PMS_P2;Temp;Humidity;BMP_temperature;BMP_pressure;BME280_temperature;BME280_humidity;BME280_pressure;Samples;Min_cycle;Max_cycle;Signal;HPM_P1;HPM_P2
2021/12/17 00:00:18;;;;;;;38.33;16.30;;;9.50;99.90;;;;;;5016219;28;20025;-58
2021/12/17 00:08:20;;;;;;;37.20;16.35;;;9.60;99.90;;;;;;5022143;28;20040;-58
2021/12/17 00:10:48;;;;;;;39.25;16.70;;;9.50;99.90;;;;;;5034967;28;20018;-58
2021/12/17 00:13:13;;;;;;;31.98;14.40;;;9.50;99.90;;;;;;5034885;28;20025;-58
2021/12/17 00:15:40;;;;;;;32.83;13.98;;;9.60;99.90;;;;;;5034498;28;20025;-57
2021/12/17 00:18:15;;;;;;;35.10;15.98;;;9.60;99.90;;;;;;5035256;28;20017;-58
2021/12/17 00:40:19;;;;;;;34.22;16.05;;;9.60;99.90;;;;;;5034470;28;20138;-58
2021/12/17 00:43:51;;;;;;;32.08;15.07;;;9.60;99.90;;;;;;5035702;28;20036;-58
2021/12/17 00:48:38;;;;;;;32.72;15.15;;;9.60;99.90;;;;;;5015654;28;20041;-57
2021/12/17 00:53:45;;;;;;;33.22;15.13;;;9.60;99.90;;;;;;5015230;28;20018;-58
2021/12/17 00:56:11;;;;;;;27.92;13.00;;;9.60;99.90;;;;;;5015123;28;20073;-58
2021/12/17 00:58:36;;;;;;;30.73;14.13;;;9.60;99.90;;;;;;5013925;28;20029;-57
2021/12/17 01:01:02;;;;;;;27.48;13.13;;;9.60;99.90;;;;;;5013884;28;20025;-58
2021/12/17 01:03:28;;;;;;;27.67;14.02;;;9.60;99.90;;;;;;5014667;28;20026;-58
2021/12/17 01:05:53;;;;;;;33.17;14.07;;;9.60;99.90;;;;;;5014910;28;20030;-58
2021/12/17 01:08:19;;;;;;;30.98;13.20;;;9.60;99.90;;;;;;5015002;28;20037;-56
2021/12/17 01:10:53;;;;;;;27.05;12.23;;;9.70;99.90;;;;;;5013711;28;20025;-58
2021/12/17 01:13:18;;;;;;;24.70;12.40;;;9.60;99.90;;;;;;5015498;28;20030;-57
2021/12/17 01:15:57;;;;;;;27.20;12.68;;;9.60;99.90;;;;;;5014973;28;20507;-58
2021/12/17 01:18:35;;;;;;;26.10;11.77;;;9.70;99.90;;;;;;5014931;28;20033;-54
2021/12/17 01:36:44;;;;;;;25.35;12.93;;;9.60;99.90;;;;;;5014996;28;20041;-58
2021/12/17 01:42:06;;;;;;;27.73;12.68;;;9.50;99.90;;;;;;5013625;28;20029;-58
2021/12/17 01:44:40;;;;;;;33.75;14.88;;;9.60;99.90;;;;;;5014192;28;20113;-58
2021/12/17 01:47:10;;;;;;;30.83;13.30;;;9.60;99.90;;;;;;5014680;28;20022;-58
2021/12/17 02:00:09;;;;;;;32.80;15.05;;;9.60;99.90;;;;;;5014439;28;20034;-53
2021/12/17 02:02:42;;;;;;;31.98;14.55;;;9.50;99.90;;;;;;5012779;28;20026;-58
2021/12/17 02:05:09;;;;;;;31.60;14.65;;;9.50;99.90;;;;;;5013357;28;20030;-58
2021/12/17 02:07:34;;;;;;;32.38;13.75;;;9.60;99.90;;;;;;5012741;28;20503;-57
2021/12/17 02:28:44;;;;;;;28.42;12.55;;;9.50;99.90;;;;;;5014589;28;20221;-58
2021/12/17 02:31:30;;;;;;;25.33;11.60;;;9.50;99.90;;;;;;5014051;28;20089;-57
2021/12/17 02:34:00;;;;;;;26.23;12.45;;;9.50;99.90;;;;;;5013653;28;20057;-56
2021/12/17 02:36:29;;;;;;;25.98;11.43;;;9.50;99.90;;;;;;5012673;28;20041;-56
2021/12/17 02:39:45;;;;;;;26.08;12.50;;;9.60;99.90;;;;;;5013527;28;20029;-58
2021/12/17 02:42:48;;;;;;;28.80;14.13;;;9.50;99.90;;;;;;5012228;28;20396;-56
2021/12/17 02:48:11;;;;;;;24.17;11.38;;;9.30;99.90;;;;;;5014366;28;20052;-56
2021/12/17 02:50:42;;;;;;;31.38;13.82;;;9.30;99.90;;;;;;5012409;28;20156;-58
2021/12/17 02:53:09;;;;;;;28.60;12.90;;;9.30;99.90;;;;;;5012268;28;20049;-58
2021/12/17 02:55:37;;;;;;;29.55;12.93;;;9.30;99.90;;;;;;5013411;28;20022;-58
2021/12/17 02:58:05;;;;;;;23.88;11.57;;;9.30;99.90;;;;;;5024874;28;20057;-58
2021/12/17 03:00:32;;;;;;;23.85;11.82;;;9.40;99.90;;;;;;5013762;28;20068;-58
2021/12/17 03:02:59;;;;;;;26.65;11.88;;;9.40;99.90;;;;;;5013337;28;20026;-58
2021/12/17 03:06:03;;;;;;;25.48;12.27;;;9.40;99.90;;;;;;5013306;28;20026;-56
2021/12/17 03:08:29;;;;;;;24.70;12.48;;;9.40;99.90;;;;;;5013264;28;20026;-54
2021/12/17 03:10:56;;;;;;;26.73;12.02;;;9.40;99.90;;;;;;5028916;28;20045;-58
2021/12/17 03:13:23;;;;;;;28.10;13.23;;;9.40;99.90;;;;;;5013228;28;20100;-58
2021/12/17 03:15:55;;;;;;;28.50;11.68;;;9.40;99.90;;;;;;5013120;28;20089;-58
2021/12/17 03:23:43;;;;;;;24.40;12.13;;;9.40;99.90;;;;;;5013387;28;20538;-58
2021/12/17 03:26:24;;;;;;;24.77;11.57;;;9.40;99.90;;;;;;5012752;28;20029;-58
2021/12/17 03:28:53;;;;;;;27.55;12.32;;;9.40;99.90;;;;;;5013135;28;20124;-58
2021/12/17 03:31:20;;;;;;;26.20;11.00;;;9.50;99.90;;;;;;5012268;28;20045;-58
2021/12/17 03:33:49;;;;;;;25.17;11.18;;;9.50;99.90;;;;;;5012617;28;20025;-58
2021/12/17 03:36:16;;;;;;;21.35;10.43;;;9.50;99.90;;;;;;5013233;28;20030;-58
2021/12/17 03:38:45;;;;;;;20.35;10.10;;;9.40;99.90;;;;;;5013295;28;20025;-58
2021/12/17 03:41:23;;;;;;;24.27;11.40;;;9.30;99.90;;;;;;5013301;28;20045;-58
2021/12/17 03:43:51;;;;;;;20.05;8.45;;;9.20;99.90;;;;;;5012981;28;20473;-58
2021/12/17 03:46:19;;;;;;;20.75;10.68;;;9.10;99.90;;;;;;5011892;28;20089;-56
2021/12/17 03:48:45;;;;;;;23.23;11.18;;;9.20;99.90;;;;;;5012975;28;20076;-58
2021/12/17 03:51:14;;;;;;;22.23;9.68;;;9.20;99.90;;;;;;5013541;28;20030;-56
2021/12/17 03:53:44;;;;;;;19.63;9.60;;;9.10;99.90;;;;;;5031186;28;20022;-55
2021/12/17 03:56:09;;;;;;;23.40;10.57;;;9.10;99.90;;;;;;5015134;28;20094;-58
2021/12/17 03:58:35;;;;;;;19.42;9.77;;;9.20;99.90;;;;;;5015096;28;20108;-58
2021/12/17 04:01:01;;;;;;;19.75;9.82;;;9.20;99.90;;;;;;5015126;28;20269;-58
2021/12/17 04:03:26;;;;;;;17.88;8.93;;;9.20;99.90;;;;;;5014877;28;20026;-57
2021/12/17 04:05:52;;;;;;;24.40;9.95;;;9.20;99.90;;;;;;5015261;28;20022;-58
2021/12/17 04:08:18;;;;;;;17.92;9.68;;;9.10;99.90;;;;;;5015303;28;20022;-58
2021/12/17 04:10:48;;;;;;;18.67;9.07;;;9.20;99.90;;;;;;5015184;28;20029;-54
2021/12/17 04:15:59;;;;;;;20.95;9.90;;;9.30;99.90;;;;;;5016045;28;20022;-58
2021/12/17 04:18:25;;;;;;;20.88;9.93;;;9.20;99.90;;;;;;5015043;28;20022;-56
2021/12/17 04:20:52;;;;;;;20.40;8.75;;;9.30;99.90;;;;;;5014719;28;20026;-57
2021/12/17 04:23:18;;;;;;;20.58;9.45;;;9.20;99.90;;;;;;5015774;28;20107;-57
2021/12/17 04:25:43;;;;;;;18.60;9.45;;;9.20;99.90;;;;;;5015997;28;20026;-58
2021/12/17 04:28:10;;;;;;;20.83;9.38;;;9.30;99.90;;;;;;5014623;28;20026;-58
2021/12/17 04:30:37;;;;;;;15.57;9.00;;;9.30;99.90;;;;;;5014740;28;20032;-58
2021/12/17 04:33:03;;;;;;;21.73;9.50;;;9.40;99.90;;;;;;5014467;28;20037;-58
2021/12/17 04:35:29;;;;;;;18.92;8.70;;;9.40;99.90;;;;;;5030866;28;20026;-57
2021/12/17 04:37:55;;;;;;;17.52;8.52;;;9.40;99.90;;;;;;5015975;28;20022;-58
2021/12/17 04:40:23;;;;;;;20.67;10.52;;;9.50;99.90;;;;;;5015908;28;20085;-57
2021/12/17 04:43:14;;;;;;;20.55;10.77;;;9.40;99.90;;;;;;5015463;28;20018;-57
2021/12/17 04:46:30;;;;;;;20.07;10.03;;;9.30;99.90;;;;;;5015380;28;20022;-58
2021/12/17 04:59:30;;;;;;;24.67;11.65;;;9.20;99.90;;;;;;5015590;28;20033;-57
2021/12/17 05:01:55;;;;;;;31.27;12.13;;;9.30;99.90;;;;;;5030401;28;20025;-58
2021/12/17 05:04:21;;;;;;;21.77;11.70;;;9.40;99.90;;;;;;5029407;28;20054;-57
2021/12/17 05:06:46;;;;;;;24.15;11.52;;;9.30;99.90;;;;;;5030361;28;20029;-55
2021/12/17 05:09:25;;;;;;;28.63;12.68;;;9.30;99.90;;;;;;5030249;28;20076;-57
2021/12/17 05:20:14;;;;;;;23.40;11.40;;;9.30;99.90;;;;;;5015203;28;20083;-55
2021/12/17 05:22:42;;;;;;;28.27;12.82;;;9.40;99.90;;;;;;5015088;28;20053;-58
2021/12/17 05:25:08;;;;;;;27.50;11.02;;;9.40;99.90;;;;;;5029886;28;20033;-58
2021/12/17 05:27:34;;;;;;;23.48;11.63;;;9.40;99.90;;;;;;5014994;28;20022;-58
2021/12/17 05:30:00;;;;;;;26.35;11.13;;;9.50;99.90;;;;;;5030075;28;20025;-57
2021/12/17 05:32:25;;;;;;;22.13;10.07;;;9.40;99.90;;;;;;5014657;28;20488;-58
2021/12/17 05:34:51;;;;;;;17.25;8.98;;;9.40;99.90;;;;;;5014498;28;20037;-57
2021/12/17 05:37:17;;;;;;;17.13;9.10;;;9.30;99.90;;;;;;5030157;28;20026;-56
2021/12/17 05:39:42;;;;;;;19.42;8.98;;;9.20;99.90;;;;;;5013236;28;20026;-58
2021/12/17 05:42:08;;;;;;;21.23;8.90;;;9.20;99.90;;;;;;5029692;28;20032;-60
2021/12/17 05:44:34;;;;;;;19.35;9.38;;;9.20;99.90;;;;;;5014127;28;20030;-58
2021/12/17 05:46:59;;;;;;;17.77;9.00;;;9.20;99.90;;;;;;5013933;28;20029;-52
2021/12/17 05:49:27;;;;;;;18.77;8.80;;;9.30;99.90;;;;;;5013802;28;20022;-55
2021/12/17 05:51:54;;;;;;;17.15;8.77;;;9.30;99.90;;;;;;5013449;28;20018;-58
2021/12/17 05:54:20;;;;;;;17.95;8.43;;;9.30;99.90;;;;;;5013291;28;20026;-58
2021/12/17 05:56:46;;;;;;;16.98;7.82;;;9.30;99.90;;;;;;5013251;28;20057;-54
2021/12/17 05:59:12;;;;;;;19.02;8.30;;;9.40;99.90;;;;;;5014229;28;20087;-58
2021/12/17 06:01:38;;;;;;;14.48;6.47;;;9.40;99.90;;;;;;5012889;28;20029;-58
2021/12/17 06:04:03;;;;;;;12.25;7.05;;;9.40;99.90;;;;;;5030400;28;20056;-57
2021/12/17 06:06:32;;;;;;;15.80;7.97;;;9.40;99.90;;;;;;5013944;28;20107;-52
2021/12/17 06:08:57;;;;;;;16.55;7.40;;;9.50;99.90;;;;;;5013951;28;20032;-58
2021/12/17 06:11:23;;;;;;;14.68;7.25;;;9.50;99.90;;;;;;5012643;28;20026;-58
2021/12/17 06:13:49;;;;;;;12.85;5.57;;;9.50;99.90;;;;;;5012606;28;20499;-58
2021/12/17 06:16:15;;;;;;;12.05;6.82;;;9.30;99.90;;;;;;5013934;28;20025;-56
2021/12/17 06:18:41;;;;;;;13.27;6.40;;;9.40;99.90;;;;;;5012590;28;20085;-56
2021/12/17 06:21:06;;;;;;;14.30;6.63;;;9.40;99.90;;;;;;5014386;28;20543;-58
2021/12/17 06:23:32;;;;;;;10.35;5.75;;;9.40;99.90;;;;;;5013703;28;20034;-58
2021/12/17 06:25:57;;;;;;;12.85;6.25;;;9.30;99.90;;;;;;5012727;28;20048;-56
2021/12/17 06:28:23;;;;;;;12.05;6.45;;;9.20;99.90;;;;;;5012721;28;20033;-58
2021/12/17 06:30:48;;;;;;;10.68;5.70;;;9.30;99.90;;;;;;5012483;28;20029;-58
2021/12/17 06:33:14;;;;;;;10.48;5.95;;;9.30;99.90;;;;;;5012468;28;20022;-56
2021/12/17 06:35:40;;;;;;;17.48;6.45;;;9.30;99.90;;;;;;5012403;28;20033;-58
2021/12/17 06:38:06;;;;;;;15.93;6.97;;;9.40;99.90;;;;;;5012894;28;20057;-58
2021/12/17 06:40:32;;;;;;;14.52;7.43;;;9.40;99.90;;;;;;5012389;28;20080;-56
2021/12/17 06:42:57;;;;;;;14.05;6.78;;;9.40;99.90;;;;;;5012185;28;20036;-58
2021/12/17 06:45:39;;;;;;;14.68;6.80;;;9.40;99.90;;;;;;5012428;28;20034;-56
2021/12/17 06:48:05;;;;;;;11.38;6.05;;;9.40;99.90;;;;;;5012353;28;20080;-58
2021/12/17 06:59:00;;;;;;;14.50;7.68;;;9.40;99.90;;;;;;5013787;28;20109;-57
2021/12/17 07:10:05;;;;;;;10.80;6.40;;;9.50;99.90;;;;;;5013407;28;20022;-58
2021/12/17 07:18:07;;;;;;;13.25;6.50;;;9.50;99.90;;;;;;4994228;28;20029;-56
2021/12/17 07:23:15;;;;;;;17.85;6.80;;;9.40;99.90;;;;;;5013283;28;20072;-58
2021/12/17 07:39:38;;;;;;;10.30;5.68;;;9.30;99.90;;;;;;5036608;28;20033;-54
2021/12/17 07:42:04;;;;;;;10.95;6.22;;;9.30;99.90;;;;;;5035045;28;20037;-57
2021/12/17 07:44:30;;;;;;;15.25;7.03;;;9.30;99.90;;;;;;5036263;28;20025;-55
2021/12/17 07:46:56;;;;;;;15.88;6.25;;;9.20;99.90;;;;;;5035041;28;20021;-55
2021/12/17 07:49:21;;;;;;;12.93;5.95;;;9.20;99.90;;;;;;5015410;28;20033;-58
2021/12/17 07:51:47;;;;;;;13.07;5.80;;;9.40;99.90;;;;;;5016317;28;20045;-59
2021/12/17 07:54:13;;;;;;;10.77;5.75;;;9.40;99.90;;;;;;5015414;28;20068;-59
2021/12/17 07:56:38;;;;;;;10.80;5.40;;;9.50;99.90;;;;;;5015265;28;20034;-62
2021/12/17 07:59:08;;;;;;;7.55;4.03;;;9.30;99.90;;;;;;5015043;28;20118;-59
2021/12/17 08:01:35;;;;;;;7.57;3.97;;;9.40;99.90;;;;;;5016255;28;20112;-58
2021/12/17 08:04:02;;;;;;;7.95;3.70;;;9.20;99.90;;;;;;5014844;28;20052;-58
2021/12/17 08:09:50;;;;;;;6.63;3.42;;;9.20;99.90;;;;;;5035879;28;20068;-57
2021/12/17 08:12:17;;;;;;;6.22;3.58;;;9.30;99.90;;;;;;5034919;28;20021;-57
2021/12/17 08:14:43;;;;;;;6.20;3.33;;;9.30;99.90;;;;;;5034939;28;20061;-55
2021/12/17 08:25:27;;;;;;;5.80;3.58;;;8.80;99.90;;;;;;5015792;28;20040;-56
2021/12/17 08:28:16;;;;;;;9.20;3.90;;;8.90;99.90;;;;;;5014606;28;20033;-56
2021/12/17 08:30:39;;;;;;;9.77;4.53;;;9.10;99.90;;;;;;5015457;28;20052;-52
2021/12/17 08:33:06;;;;;;;8.88;4.57;;;9.20;99.90;;;;;;5015158;28;20076;-55
2021/12/17 08:35:59;;;;;;;11.30;6.53;;;9.30;99.90;;;;;;5031139;28;20029;-57
2021/12/17 08:38:25;;;;;;;7.88;4.35;;;9.30;99.90;;;;;;5014643;28;20049;-52
2021/12/17 08:40:50;;;;;;;15.48;8.60;;;9.30;99.90;;;;;;5015551;28;20025;-55
2021/12/17 08:43:16;;;;;;;12.70;7.47;;;9.30;99.90;;;;;;5015526;28;20084;-57
2021/12/17 08:45:42;;;;;;;18.00;8.55;;;9.30;99.90;;;;;;5014500;28;20503;-53
2021/12/17 08:48:08;;;;;;;16.23;7.22;;;9.30;99.90;;;;;;5015407;28;20097;-54
2021/12/17 08:50:34;;;;;;;10.15;5.78;;;9.30;99.90;;;;;;5015224;28;20124;-55
2021/12/17 08:53:00;;;;;;;8.15;5.07;;;9.30;99.90;;;;;;5015240;28;20044;-55
2021/12/17 08:55:26;;;;;;;14.25;4.60;;;9.40;99.90;;;;;;5015165;28;20034;-55
2021/12/17 08:57:51;;;;;;;5.85;4.15;;;9.50;99.90;;;;;;5013937;28;20026;-55
2021/12/17 09:00:17;;;;;;;8.00;3.95;;;9.50;99.90;;;;;;5015432;28;20030;-53
2021/12/17 09:02:42;;;;;;;10.15;4.40;;;9.50;99.90;;;;;;5023115;28;20038;-54
2021/12/17 09:05:09;;;;;;;10.60;4.60;;;9.50;99.90;;;;;;5015226;28;20026;-54
2021/12/17 09:07:36;;;;;;;6.63;4.50;;;9.60;99.90;;;;;;5030300;28;20030;-54
2021/12/17 09:10:05;;;;;;;7.00;4.28;;;9.50;99.90;;;;;;5014998;28;20033;-55
2021/12/17 09:12:31;;;;;;;10.07;5.85;;;9.70;99.90;;;;;;5030500;28;20022;-56
2021/12/17 09:14:57;;;;;;;9.63;4.78;;;9.70;99.90;;;;;;5013472;28;20033;-54
2021/12/17 09:17:24;;;;;;;10.68;4.28;;;9.70;99.90;;;;;;5014046;28;20034;-58
2021/12/17 09:20:05;;;;;;;10.20;4.60;;;9.80;99.90;;;;;;5013559;28;20026;-56
2021/12/17 09:22:30;;;;;;;14.85;4.60;;;9.90;99.90;;;;;;5030099;28;20026;-56
2021/12/17 09:24:56;;;;;;;7.15;4.03;;;9.90;99.90;;;;;;5013560;28;20033;-57
2021/12/17 09:27:21;;;;;;;9.25;4.30;;;10.00;99.90;;;;;;5013418;28;20065;-56
2021/12/17 09:29:47;;;;;;;7.88;3.97;;;10.00;99.90;;;;;;5014298;28;20021;-57
2021/12/17 09:32:23;;;;;;;7.13;3.28;;;10.10;99.90;;;;;;5030841;28;20029;-59
2021/12/17 09:34:49;;;;;;;6.97;3.80;;;10.10;99.90;;;;;;5034441;28;20088;-61
2021/12/17 09:37:15;;;;;;;5.72;3.85;;;10.10;99.90;;;;;;5033084;28;20112;-61
2021/12/17 09:39:41;;;;;;;6.03;3.53;;;10.20;99.90;;;;;;5034271;28;20029;-61
2021/12/17 09:42:07;;;;;;;9.35;4.25;;;10.20;99.90;;;;;;5034077;28;20391;-59
2021/12/17 09:44:33;;;;;;;6.88;4.15;;;10.20;99.90;;;;;;5032568;28;20030;-60
2021/12/17 09:46:59;;;;;;;10.23;4.40;;;10.20;99.90;;;;;;5032864;28;20029;-61
2021/12/17 09:49:25;;;;;;;10.35;4.95;;;10.30;99.90;;;;;;5032837;28;20036;-61
2021/12/17 09:51:51;;;;;;;14.52;6.15;;;10.30;99.90;;;;;;5033234;28;20022;-61
2021/12/17 09:54:24;;;;;;;14.48;6.55;;;10.30;99.90;;;;;;5033825;28;20105;-60
2021/12/17 09:56:49;;;;;;;9.60;4.82;;;10.30;99.90;;;;;;5034332;28;20025;-61
2021/12/17 09:59:15;;;;;;;7.60;3.35;;;10.40;99.90;;;;;;5034245;28;20493;-61
2021/12/17 10:01:43;;;;;;;11.48;6.35;;;10.40;99.90;;;;;;5028294;28;20072;-53
2021/12/17 10:04:42;;;;;;;17.45;7.97;;;10.40;99.90;;;;;;5013032;28;20058;-58
2021/12/17 10:07:17;;;;;;;17.73;7.97;;;10.40;99.90;;;;;;5013036;28;20018;-58
2021/12/17 10:09:48;;;;;;;18.50;6.70;;;10.50;99.90;;;;;;5013919;28;20030;-57
2021/12/17 10:12:13;;;;;;;10.20;5.07;;;10.50;99.90;;;;;;5013831;28;20026;-57
2021/12/17 10:15:30;;;;;;;8.75;3.97;;;10.60;99.90;;;;;;5012870;28;20072;-53
2021/12/17 10:18:03;;;;;;;6.53;4.57;;;10.60;99.90;;;;;;5012743;28;20038;-53
2021/12/17 10:20:56;;;;;;;9.75;4.20;;;10.50;99.90;;;;;;5013843;28;20068;-57
2021/12/17 10:23:24;;;;;;;6.28;3.90;;;10.50;99.90;;;;;;5008926;28;20133;-57
2021/12/17 10:25:49;;;;;;;7.20;3.72;;;10.60;99.90;;;;;;5012603;28;20050;-57
2021/12/17 10:28:16;;;;;;;8.93;4.40;;;10.60;99.90;;;;;;5013301;28;20061;-54
2021/12/17 10:30:45;;;;;;;9.70;4.80;;;10.60;99.90;;;;;;5012806;28;20022;-58
2021/12/17 10:33:17;;;;;;;9.13;5.05;;;10.70;99.90;;;;;;5012303;28;20049;-52
2021/12/17 10:35:46;;;;;;;8.98;4.10;;;10.80;99.90;;;;;;5028947;28;20029;-54
2021/12/17 10:41:45;;;;;;;9.55;5.70;;;10.90;99.90;;;;;;5013807;28;20020;-56
2021/12/17 10:44:10;;;;;;;7.72;4.88;;;10.90;99.90;;;;;;5028634;28;20117;-58
2021/12/17 10:46:45;;;;;;;14.10;5.70;;;10.90;99.90;;;;;;5013377;28;20096;-56
2021/12/17 10:54:21;;;;;;;13.80;6.53;;;10.90;99.90;;;;;;5012861;28;20026;-58
2021/12/17 10:56:55;;;;;;;13.80;7.32;;;10.90;99.90;;;;;;5012474;28;20104;-54
2021/12/17 10:59:45;;;;;;;12.70;6.47;;;10.90;99.90;;;;;;5011185;28;20022;-57
2021/12/17 11:02:12;;;;;;;9.75;5.88;;;10.90;99.90;;;;;;5029293;28;20025;-56
2021/12/17 11:04:51;;;;;;;11.60;6.40;;;11.00;99.90;;;;;;5034336;28;20041;-56
2021/12/17 11:07:18;;;;;;;14.45;7.20;;;11.00;99.90;;;;;;5035729;28;20018;-56
2021/12/17 11:13:32;;;;;;;11.57;4.90;;;11.20;99.90;;;;;;5036097;28;20076;-52
2021/12/17 11:15:58;;;;;;;10.45;4.80;;;11.40;99.90;;;;;;5035847;28;20026;-51
2021/12/17 11:18:26;;;;;;;13.15;4.55;;;11.40;99.90;;;;;;5034450;28;20035;-52
2021/12/17 11:20:54;;;;;;;8.57;5.15;;;11.50;99.90;;;;;;5035646;28;20025;-49
2021/12/17 11:23:33;;;;;;;10.75;6.07;;;11.50;99.90;;;;;;5035233;28;20053;-56
2021/12/17 11:26:00;;;;;;;10.10;4.78;;;11.60;99.90;;;;;;5035516;28;20052;-52
2021/12/17 11:28:26;;;;;;;9.38;4.90;;;11.60;99.90;;;;;;5034331;28;20116;-53
2021/12/17 11:30:52;;;;;;;9.48;4.07;;;11.60;99.90;;;;;;5034190;28;20483;-52
2021/12/17 11:33:18;;;;;;;10.35;4.07;;;11.60;99.90;;;;;;5036034;28;20096;-55
2021/12/17 11:35:46;;;;;;;10.73;4.38;;;11.60;99.90;;;;;;5034462;28;20064;-50
2021/12/17 11:38:30;;;;;;;8.20;4.15;;;11.70;99.90;;;;;;5034147;28;20029;-51
2021/12/17 11:41:24;;;;;;;8.27;3.60;;;11.70;99.90;;;;;;5033997;28;20395;-55
2021/12/17 11:44:03;;;;;;;10.90;3.70;;;11.70;99.90;;;;;;5034831;28;20381;-52
2021/12/17 11:46:32;;;;;;;9.65;4.78;;;11.60;99.90;;;;;;5033926;28;20028;-54
2021/12/17 11:49:04;;;;;;;8.07;4.00;;;11.60;99.90;;;;;;4996905;28;1095945;-52
2021/12/17 11:51:33;;;;;;;8.80;3.75;;;11.70;99.90;;;;;;5035187;28;20373;-50
2021/12/17 11:54:08;;;;;;;15.57;7.15;;;11.70;99.90;;;;;;5035356;28;20037;-56
2021/12/17 11:56:42;;;;;;;11.60;5.22;;;11.70;99.90;;;;;;5036284;28;20040;-50
2021/12/17 11:59:42;;;;;;;8.93;3.92;;;11.60;99.90;;;;;;5036319;28;20083;-53
2021/12/17 12:02:19;;;;;;;11.02;4.43;;;11.60;99.90;;;;;;5003489;28;20506;-52
2021/12/17 12:04:50;;;;;;;10.27;4.82;;;11.40;99.90;;;;;;5035588;28;20057;-52
2021/12/17 12:07:17;;;;;;;15.43;6.05;;;11.40;99.90;;;;;;5035988;28;20076;-51
2021/12/17 12:10:08;;;;;;;10.35;3.83;;;11.30;99.90;;;;;;5016454;28;20029;-52
2021/12/17 12:12:45;;;;;;;8.45;3.70;;;11.40;99.90;;;;;;5018835;28;21699;-54
2021/12/17 12:15:17;;;;;;;8.20;4.65;;;11.40;99.90;;;;;;5015533;28;20030;-55
2021/12/17 12:17:58;;;;;;;11.15;4.50;;;11.50;99.90;;;;;;5029050;28;20061;-54
2021/12/17 12:20:46;;;;;;;9.57;4.15;;;11.50;99.90;;;;;;5014692;28;20030;-56
2021/12/17 12:23:29;;;;;;;10.93;4.50;;;11.50;99.90;;;;;;5015846;28;20030;-53
2021/12/17 12:26:11;;;;;;;9.15;3.40;;;11.50;99.90;;;;;;5028501;28;20033;-56
2021/12/17 12:28:53;;;;;;;7.80;3.83;;;11.50;99.90;;;;;;5035742;28;20072;-55
2021/12/17 12:31:30;;;;;;;7.45;3.90;;;11.50;99.90;;;;;;5034076;28;20022;-53
2021/12/17 12:36:46;;;;;;;13.68;4.22;;;11.60;99.90;;;;;;5021121;28;20022;-53
2021/12/17 12:39:22;;;;;;;7.88;3.88;;;11.50;99.90;;;;;;5027494;28;20079;-53
2021/12/17 12:42:13;;;;;;;11.02;3.78;;;11.50;99.90;;;;;;5034111;28;20018;-55
2021/12/17 12:44:44;;;;;;;14.40;4.32;;;11.50;99.90;;;;;;5027459;28;20029;-53
2021/12/17 12:47:13;;;;;;;12.05;4.53;;;11.50;99.90;;;;;;5024112;28;20032;-55
2021/12/17 12:49:59;;;;;;;7.55;4.00;;;11.40;99.90;;;;;;5033717;28;20067;-52
2021/12/17 12:52:31;;;;;;;8.85;4.30;;;11.40;99.90;;;;;;5035290;28;20053;-53
2021/12/17 12:54:57;;;;;;;;;;;11.50;99.90;;;;;;5034072;28;20021;-55
2021/12/17 12:57:27;;;;;;;11.10;3.95;;;11.50;99.90;;;;;;5035068;28;19963;-52
2021/12/17 12:59:54;;;;;;;11.80;4.43;;;11.50;99.90;;;;;;5033732;28;20025;-51
2021/12/17 13:02:21;;;;;;;7.75;3.92;;;11.40;99.90;;;;;;5024841;28;20120;-52
2021/12/17 13:04:46;;;;;;;9.45;4.25;;;11.30;99.90;;;;;;5013865;28;20029;-53
2021/12/17 13:07:15;;;;;;;7.00;3.97;;;11.40;99.90;;;;;;5026342;28;20029;-57
2021/12/17 13:09:43;;;;;;;10.45;3.67;;;11.30;99.90;;;;;;5035063;28;20067;-57
2021/12/17 13:12:09;;;;;;;11.77;5.28;;;11.30;99.90;;;;;;5015865;28;20033;-57
2021/12/17 13:14:44;;;;;;;9.73;4.32;;;11.30;99.90;;;;;;5015028;28;20022;-57
2021/12/17 13:17:41;;;;;;;11.52;4.22;;;11.30;99.90;;;;;;5013758;28;20030;-57
2021/12/17 13:20:31;;;;;;;10.00;3.88;;;11.30;99.90;;;;;;5017227;28;20026;-57
2021/12/17 13:23:00;;;;;;;12.60;4.65;;;11.40;99.90;;;;;;5016454;28;20026;-57
2021/12/17 13:25:28;;;;;;;10.90;5.15;;;11.30;99.90;;;;;;5028488;28;20032;-56
2021/12/17 13:27:55;;;;;;;11.32;4.03;;;11.30;99.90;;;;;;5033647;28;20068;-56
2021/12/17 13:30:27;;;;;;;6.85;4.20;;;11.30;99.90;;;;;;5016720;28;20025;-52
2021/12/17 13:32:54;;;;;;;12.02;4.53;;;11.40;99.90;;;;;;5014597;28;20496;-56
2021/12/17 13:35:21;;;;;;;11.40;3.95;;;11.40;99.90;;;;;;5014869;28;20034;-56
2021/12/17 13:37:52;;;;;;;8.50;4.53;;;11.40;99.90;;;;;;5013365;28;20032;-57
2021/12/17 13:40:23;;;;;;;5.97;3.03;;;11.40;99.90;;;;;;5013128;28;20484;-55
2021/12/17 13:42:49;;;;;;;8.88;4.00;;;11.50;99.90;;;;;;5014081;28;20081;-55
2021/12/17 13:45:30;;;;;;;8.35;3.58;;;11.40;99.90;;;;;;5013175;28;20125;-57
2021/12/17 13:47:57;;;;;;;9.27;4.03;;;11.40;99.90;;;;;;5013268;28;20026;-57
2021/12/17 13:50:32;;;;;;;9.95;4.00;;;11.30;99.90;;;;;;5013506;28;20041;-52
2021/12/17 13:53:15;;;;;;;8.30;3.75;;;11.20;99.90;;;;;;5017065;28;20025;-51
2021/12/17 13:55:44;;;;;;;7.68;3.17;;;11.10;99.90;;;;;;5032660;28;20030;-53
2021/12/17 13:58:16;;;;;;;6.68;3.38;;;11.20;99.90;;;;;;5034330;28;20079;-51
2021/12/17 14:00:49;;;;;;;9.95;3.35;;;11.20;99.90;;;;;;5033031;28;20021;-53
2021/12/17 14:03:16;;;;;;;6.32;3.33;;;11.10;99.90;;;;;;5033877;28;20052;-50
2021/12/17 14:05:58;;;;;;;9.50;3.90;;;11.10;99.90;;;;;;5032871;28;20052;-52
2021/12/17 14:08:24;;;;;;;;;;;11.00;99.90;;;;;;5034267;28;20037;-50
2021/12/17 14:10:53;;;;;;;10.27;4.57;;;11.00;99.90;;;;;;5033837;28;19905;-49
2021/12/17 14:13:25;;;;;;;7.43;3.75;;;11.00;99.90;;;;;;5033756;28;20100;-52
2021/12/17 14:15:52;;;;;;;10.68;3.67;;;11.10;99.90;;;;;;5032433;28;20034;-55
2021/12/17 14:18:21;;;;;;;11.02;4.80;;;11.10;99.90;;;;;;5032455;28;20080;-54
2021/12/17 14:20:55;;;;;;;8.50;3.97;;;11.10;99.90;;;;;;5028525;28;20424;-50
2021/12/17 14:23:23;;;;;;;9.85;3.53;;;11.10;99.90;;;;;;5012821;28;20392;-51
2021/12/17 14:25:54;;;;;;;9.07;3.97;;;11.10;99.90;;;;;;5017815;28;20029;-51
2021/12/17 14:28:27;;;;;;;10.32;3.83;;;11.20;99.90;;;;;;5033504;28;20025;-52
2021/12/17 14:31:15;;;;;;;11.15;3.42;;;11.10;99.90;;;;;;5031972;28;20021;-50
2021/12/17 14:33:48;;;;;;;6.85;3.53;;;11.10;99.90;;;;;;5022031;28;20045;-51
2021/12/17 14:36:17;;;;;;;6.40;3.47;;;11.20;99.90;;;;;;5031352;28;20084;-52
2021/12/17 14:38:51;;;;;;;13.15;3.92;;;11.20;99.90;;;;;;5013420;28;20080;-52
2021/12/17 14:41:34;;;;;;;8.98;4.47;;;11.10;99.90;;;;;;5012412;28;20029;-53
2021/12/17 14:44:12;;;;;;;11.52;4.20;;;11.10;99.90;;;;;;5012241;28;20029;-56
2021/12/17 14:46:50;;;;;;;11.38;3.88;;;11.10;99.90;;;;;;5013812;28;20020;-52
2021/12/17 15:02:58;;;;;;;9.43;4.72;;;10.90;99.90;;;;;;5033524;28;20029;-54
2021/12/17 15:05:27;;;;;;;8.80;4.05;;;10.90;99.90;;;;;;5028328;28;20164;-57
2021/12/17 15:07:56;;;;;;;10.68;4.00;;;10.90;99.90;;;;;;5012087;28;20026;-53
2021/12/17 15:10:23;;;;;;;11.63;5.45;;;10.90;99.90;;;;;;5013214;28;20030;-52
2021/12/17 15:12:51;;;;;;;12.07;5.30;;;10.80;99.90;;;;;;5016084;28;20018;-55
2021/12/17 15:15:22;;;;;;;10.68;5.38;;;10.80;99.90;;;;;;5028775;28;20036;-55
2021/12/17 15:17:50;;;;;;;13.43;5.25;;;10.80;99.90;;;;;;5012343;28;20060;-55
2021/12/17 15:20:22;;;;;;;9.15;4.57;;;10.90;99.90;;;;;;5013368;28;20054;-57
2021/12/17 15:22:48;;;;;;;18.13;5.90;;;10.90;99.90;;;;;;5013377;28;20056;-56
2021/12/17 15:25:28;;;;;;;19.30;7.18;;;10.90;99.90;;;;;;5012853;28;20048;-55
2021/12/17 15:27:54;;;;;;;15.35;6.32;;;10.80;99.90;;;;;;5013260;28;20076;-56
2021/12/17 15:30:21;;;;;;;13.32;6.20;;;10.70;99.90;;;;;;5012416;28;20026;-56
2021/12/17 15:32:48;;;;;;;9.75;4.57;;;10.70;99.90;;;;;;5014890;28;20022;-55
2021/12/17 15:35:33;;;;;;;13.05;5.22;;;10.70;99.90;;;;;;5036984;28;20121;-57
2021/12/17 15:38:00;;;;;;;8.50;3.97;;;10.70;99.90;;;;;;5051598;28;20029;-55
2021/12/17 15:40:27;;;;;;;8.05;4.82;;;10.60;99.90;;;;;;5051429;28;20029;-54
2021/12/17 15:42:54;;;;;;;11.60;5.13;;;10.60;99.90;;;;;;5041201;28;20089;-51
2021/12/17 15:45:20;;;;;;;18.10;6.57;;;10.60;99.90;;;;;;5015429;28;20026;-51
2021/12/17 15:47:46;;;;;;;12.20;5.38;;;10.60;99.90;;;;;;5031834;28;20033;-53
2021/12/17 15:50:16;;;;;;;9.80;4.85;;;10.70;99.90;;;;;;5035335;28;20533;-52
2021/12/17 15:52:46;;;;;;;11.32;6.00;;;10.60;99.90;;;;;;5036429;28;20021;-52
2021/12/17 15:55:17;;;;;;;15.43;6.70;;;10.60;99.90;;;;;;5023909;28;20029;-53
2021/12/17 15:57:43;;;;;;;17.02;5.97;;;10.50;99.90;;;;;;5015144;28;20033;-50
2021/12/17 16:00:10;;;;;;;11.65;4.78;;;10.40;99.90;;;;;;5025468;28;20053;-54
2021/12/17 16:02:39;;;;;;;13.32;4.60;;;10.40;99.90;;;;;;5015106;28;20022;-53
2021/12/17 16:05:08;;;;;;;11.48;4.65;;;10.40;99.90;;;;;;5025656;28;20498;-56
2021/12/17 16:07:33;;;;;;;11.48;4.82;;;10.40;99.90;;;;;;5034901;28;20029;-53